createdAt,value
2022-12-11T00:00:22.071Z,-1.30
2022-12-11T00:02:49.434Z,-1.20
2022-12-11T00:05:16.463Z,-1.10
2022-12-11T00:07:43.463Z,-1.20
2022-12-11T00:10:10.367Z,-1.20
2022-12-11T00:12:37.259Z,-1.20
2022-12-11T00:15:04.433Z,-1.10
2022-12-11T00:17:31.298Z,-1.10
2022-12-11T00:19:58.120Z,-1.00
2022-12-11T00:22:24.979Z,-0.40
2022-12-11T00:24:52.191Z,-0.50
2022-12-11T00:27:19.172Z,-0.50
2022-12-11T00:29:46.451Z,-0.50
2022-12-11T00:32:13.300Z,-0.40
2022-12-11T00:34:40.315Z,-0.40
2022-12-11T00:37:07.316Z,-0.60
2022-12-11T00:39:34.238Z,-0.50
2022-12-11T00:42:01.064Z,-0.50
2022-12-11T00:44:28.043Z,-0.50
2022-12-11T00:46:54.872Z,-0.40
2022-12-11T00:49:21.670Z,-0.50
2022-12-11T00:51:48.653Z,-0.60
2022-12-11T00:54:15.517Z,0.60
2022-12-11T00:56:42.490Z,-0.50
2022-12-11T00:59:09.419Z,-0.40
2022-12-11T01:01:36.442Z,-0.40
2022-12-11T01:04:03.579Z,-0.30
2022-12-11T01:06:30.579Z,-0.20
2022-12-11T01:09:16.379Z,-0.10
2022-12-11T01:11:43.899Z,-0.20
2022-12-11T01:14:11.788Z,-0.20
2022-12-11T01:16:38.655Z,-0.10
2022-12-11T01:19:05.813Z,0.00
2022-12-11T01:21:32.711Z,1.10
2022-12-11T01:23:59.594Z,0.10
2022-12-11T01:26:26.640Z,0.00
2022-12-11T01:28:53.565Z,0.00
2022-12-11T01:31:22.145Z,0.00
2022-12-11T01:33:49.170Z,0.20
2022-12-11T01:36:20.223Z,0.20
2022-12-11T01:38:48.654Z,0.20
2022-12-11T01:41:17.179Z,0.30
2022-12-11T01:44:08.443Z,0.20
2022-12-11T01:46:36.266Z,0.10
2022-12-11T01:49:07.532Z,0.10
2022-12-11T01:51:58.598Z,-0.10
2022-12-11T01:54:27.159Z,-0.20
2022-12-11T01:56:56.598Z,-0.20
2022-12-11T01:59:26.862Z,-0.20
2022-12-11T02:02:18.657Z,-0.40
2022-12-11T02:04:47.178Z,-0.30
2022-12-11T02:07:14.205Z,0.00
2022-12-11T02:09:43.674Z,-0.10
2022-12-11T02:12:33.919Z,-0.20
2022-12-11T02:15:15.405Z,-0.20
2022-12-11T02:18:12.660Z,-0.20
2022-12-11T02:21:06.526Z,-0.20
2022-12-11T02:23:33.343Z,-0.10
2022-12-11T02:26:18.158Z,0.10
2022-12-11T02:28:58.921Z,0.00
2022-12-11T02:31:43.457Z,0.20
2022-12-11T02:34:28.722Z,0.10
2022-12-11T02:37:03.742Z,0.10
2022-12-11T02:39:33.660Z,1.20
2022-12-11T02:42:01.300Z,0.00
2022-12-11T02:44:32.361Z,-0.10
2022-12-11T02:46:59.868Z,0.00
2022-12-11T02:49:28.117Z,0.10
2022-12-11T02:51:56.578Z,0.40
2022-12-11T02:54:30.579Z,0.20
2022-12-11T02:57:03.725Z,0.40
2022-12-11T02:59:38.122Z,0.80
2022-12-11T03:02:05.530Z,1.00
2022-12-11T03:04:33.911Z,1.00
2022-12-11T03:07:12.314Z,1.00
2022-12-11T03:09:44.591Z,0.90
2022-12-11T03:12:15.020Z,1.00
2022-12-11T03:14:43.103Z,1.10
2022-12-11T03:17:18.158Z,1.40
2022-12-11T03:20:06.106Z,1.40
2022-12-11T03:22:52.189Z,1.40
2022-12-11T03:25:25.910Z,1.40
2022-12-11T03:28:02.002Z,1.30
2022-12-11T03:30:31.292Z,1.30
2022-12-11T03:33:06.653Z,1.10
2022-12-11T03:36:04.169Z,1.20
2022-12-11T03:38:49.145Z,1.20
2022-12-11T03:41:19.420Z,1.20
2022-12-11T03:43:48.499Z,1.20
2022-12-11T03:46:17.075Z,1.40
2022-12-11T03:48:48.585Z,1.50
2022-12-11T03:51:16.595Z,2.30
2022-12-11T03:53:44.663Z,1.70
2022-12-11T03:56:14.331Z,1.70
2022-12-11T03:58:41.167Z,1.70
2022-12-11T04:01:12.091Z,1.60
2022-12-11T04:03:39.132Z,1.60
2022-12-11T04:06:06.515Z,1.60
2022-12-11T04:08:33.373Z,1.60
2022-12-11T04:11:18.729Z,1.70
2022-12-11T04:13:45.710Z,1.80
2022-12-11T04:16:12.543Z,1.90
2022-12-11T04:18:57.813Z,1.90
2022-12-11T04:21:43.274Z,2.00
2022-12-11T04:24:15.951Z,2.10
2022-12-11T04:26:47.426Z,2.20
2022-12-11T04:29:15.495Z,2.10
2022-12-11T04:31:42.468Z,2.30
2022-12-11T04:34:09.718Z,2.10
2022-12-11T04:36:36.536Z,2.10
2022-12-11T04:39:04.764Z,2.10
2022-12-11T04:41:31.994Z,1.80
2022-12-11T04:43:58.847Z,1.70
2022-12-11T04:46:26.146Z,1.70
2022-12-11T04:48:57.403Z,1.40
2022-12-11T04:51:24.763Z,1.30
2022-12-11T04:53:51.710Z,1.10
2022-12-11T04:56:19.068Z,1.50
2022-12-11T04:58:47.126Z,1.00
2022-12-11T05:01:20.084Z,1.00
2022-12-11T05:03:47.429Z,1.10
2022-12-11T05:06:14.559Z,1.20
2022-12-11T05:08:42.922Z,1.40
2022-12-11T05:11:12.926Z,1.40
2022-12-11T05:13:40.106Z,1.50
2022-12-11T05:16:09.128Z,1.70
2022-12-11T05:18:36.118Z,1.80
2022-12-11T05:21:06.578Z,1.90
2022-12-11T05:23:34.064Z,1.90
2022-12-11T05:26:03.484Z,1.90
2022-12-11T05:28:32.806Z,1.90
2022-12-11T05:31:12.402Z,2.10
2022-12-11T05:33:39.250Z,2.10
2022-12-11T05:36:07.873Z,2.10
2022-12-11T05:38:35.313Z,2.10
2022-12-11T05:41:06.787Z,2.10
2022-12-11T05:43:35.938Z,2.10
2022-12-11T05:46:22.710Z,2.20
2022-12-11T05:48:52.309Z,2.10
2022-12-11T05:51:19.488Z,2.00
2022-12-11T05:53:48.263Z,2.00
2022-12-11T05:56:18.377Z,2.00
2022-12-11T05:58:46.128Z,2.00
2022-12-11T06:01:25.244Z,1.60
2022-12-11T06:03:53.499Z,1.30
2022-12-11T06:06:20.671Z,1.40
2022-12-11T06:08:53.734Z,0.60
2022-12-11T06:11:24.212Z,1.20
2022-12-11T06:13:52.397Z,1.20
2022-12-11T06:16:20.028Z,1.40
2022-12-11T06:18:47.395Z,1.30
2022-12-11T06:21:23.719Z,1.30
2022-12-11T06:23:53.225Z,1.40
2022-12-11T06:26:21.407Z,1.50
2022-12-11T06:28:48.962Z,1.60
2022-12-11T06:31:16.045Z,1.60
2022-12-11T06:33:43.294Z,1.60
2022-12-11T06:36:28.402Z,1.50
2022-12-11T06:38:55.770Z,1.50
2022-12-11T06:41:22.629Z,1.60
2022-12-11T06:43:50.668Z,1.70
2022-12-11T06:46:19.518Z,1.90
2022-12-11T06:48:47.647Z,1.80
2022-12-11T06:51:17.160Z,2.10
2022-12-11T06:53:44.673Z,1.80
2022-12-11T06:56:15.797Z,1.90
2022-12-11T06:58:43.934Z,2.00
2022-12-11T07:01:25.821Z,2.10
2022-12-11T07:03:54.483Z,2.10
2022-12-11T07:06:21.653Z,2.20
2022-12-11T07:08:48.527Z,2.20
2022-12-11T07:11:17.450Z,2.20
2022-12-11T07:13:44.509Z,2.20
2022-12-11T07:16:14.214Z,2.10
2022-12-11T07:18:43.445Z,2.10
2022-12-11T07:21:13.588Z,2.20
2022-12-11T07:23:41.250Z,2.20
2022-12-11T07:26:13.917Z,2.20
2022-12-11T07:28:41.766Z,2.20
2022-12-11T07:31:11.179Z,2.30
2022-12-11T07:33:38.201Z,2.30
2022-12-11T07:36:06.976Z,2.30
2022-12-11T07:38:34.391Z,2.30
2022-12-11T07:41:06.702Z,2.50
2022-12-11T07:43:35.355Z,2.50
2022-12-11T07:46:16.588Z,2.50
2022-12-11T07:48:46.095Z,2.50
2022-12-11T07:51:12.949Z,2.50
2022-12-11T07:53:39.877Z,2.50
2022-12-11T07:56:07.580Z,2.50
2022-12-11T07:58:36.005Z,2.60
2022-12-11T08:01:02.922Z,3.00
2022-12-11T08:03:29.827Z,2.60
2022-12-11T08:05:56.655Z,2.60
2022-12-11T08:08:26.250Z,2.70
2022-12-11T08:10:53.450Z,2.70
2022-12-11T08:13:20.291Z,2.60
2022-12-11T08:15:47.091Z,2.60
2022-12-11T08:18:13.923Z,2.60
2022-12-11T08:20:41.151Z,2.60
2022-12-11T08:23:08.002Z,2.50
2022-12-11T08:25:35.519Z,2.50
2022-12-11T08:28:02.423Z,2.50
2022-12-11T08:30:31.764Z,2.50
2022-12-11T08:32:59.842Z,2.60
2022-12-11T08:35:27.030Z,2.50
2022-12-11T08:37:53.934Z,2.40
2022-12-11T08:40:20.778Z,2.30
2022-12-11T08:42:47.969Z,2.30
2022-12-11T08:45:15.168Z,2.20
2022-12-11T08:47:42.158Z,2.20
2022-12-11T08:50:09.506Z,2.40
2022-12-11T08:52:36.364Z,2.40
2022-12-11T08:55:03.720Z,2.30
2022-12-11T08:57:33.176Z,2.20
2022-12-11T09:00:00.045Z,2.10
2022-12-11T09:02:27.006Z,2.00
2022-12-11T09:04:53.904Z,2.40
2022-12-11T09:07:20.758Z,2.00
2022-12-11T09:09:47.694Z,2.10
2022-12-11T09:12:14.541Z,2.30
2022-12-11T09:14:41.311Z,2.60
2022-12-11T09:17:08.869Z,2.40
2022-12-11T09:19:35.724Z,2.40
2022-12-11T09:22:02.774Z,2.50
2022-12-11T09:24:29.620Z,2.40
2022-12-11T09:26:56.551Z,2.40
2022-12-11T09:29:23.577Z,2.40
2022-12-11T09:31:50.496Z,2.40
2022-12-11T09:34:17.418Z,2.50
2022-12-11T09:36:44.452Z,2.60
2022-12-11T09:39:13.105Z,2.70
2022-12-11T09:42:05.103Z,2.60
2022-12-11T09:44:52.870Z,2.60
2022-12-11T09:47:45.418Z,2.50
2022-12-11T09:50:25.850Z,2.50
2022-12-11T09:53:17.102Z,2.60
2022-12-11T09:55:43.898Z,2.60
2022-12-11T09:58:33.889Z,2.60
2022-12-11T10:01:12.774Z,2.60
2022-12-11T10:03:46.590Z,2.50
2022-12-11T10:06:31.656Z,2.50
2022-12-11T10:09:01.339Z,2.60
2022-12-11T10:11:56.903Z,2.10
2022-12-11T10:14:50.748Z,2.50
2022-12-11T10:17:30.811Z,2.50
2022-12-11T10:20:02.878Z,2.60
2022-12-11T10:22:32.790Z,2.60
2022-12-11T10:25:11.103Z,2.60
2022-12-11T10:27:40.528Z,2.70
2022-12-11T10:30:18.168Z,2.70
2022-12-11T10:33:00.281Z,2.80
2022-12-11T10:35:33.624Z,2.70
2022-12-11T10:38:23.948Z,2.80
2022-12-11T10:40:54.811Z,2.80
2022-12-11T10:43:42.808Z,2.80
2022-12-11T10:46:28.373Z,2.80
2022-12-11T10:49:00.263Z,2.90
2022-12-11T10:51:33.724Z,2.80
2022-12-11T10:54:35.577Z,2.70
2022-12-11T10:57:03.707Z,2.70
2022-12-11T10:59:52.471Z,2.70
2022-12-11T11:02:27.252Z,2.80
2022-12-11T11:04:56.496Z,2.80
2022-12-11T11:07:26.842Z,2.80
2022-12-11T11:10:12.190Z,2.80
2022-12-11T11:12:40.823Z,2.80
2022-12-11T11:15:33.757Z,2.80
2022-12-11T11:18:27.007Z,2.80
2022-12-11T11:20:54.350Z,2.70
2022-12-11T11:23:22.180Z,2.60
2022-12-11T11:25:52.457Z,2.40
2022-12-11T11:28:33.740Z,2.50
2022-12-11T11:31:10.261Z,2.50
2022-12-11T11:33:45.536Z,2.50
2022-12-11T11:36:22.026Z,2.60
2022-12-11T11:39:03.974Z,2.70
2022-12-11T11:41:52.025Z,2.60
2022-12-11T11:44:27.448Z,2.60
2022-12-11T11:47:09.349Z,2.60
2022-12-11T11:49:50.589Z,2.60
2022-12-11T11:52:34.714Z,2.50
2022-12-11T11:55:21.662Z,2.50
2022-12-11T11:57:55.330Z,2.50
2022-12-11T12:00:28.874Z,2.30
2022-12-11T12:03:06.245Z,2.20
2022-12-11T12:05:52.495Z,2.10
2022-12-11T12:08:40.966Z,2.20
2022-12-11T12:11:14.462Z,2.20
2022-12-11T12:13:50.726Z,2.30
2022-12-11T12:16:52.579Z,2.30
2022-12-11T12:20:02.058Z,2.30
2022-12-11T12:22:53.984Z,2.30
2022-12-11T12:25:34.927Z,2.20
2022-12-11T12:28:34.922Z,2.20
2022-12-11T12:31:26.571Z,2.10
2022-12-11T12:34:11.294Z,1.90
2022-12-11T12:37:01.738Z,1.80
2022-12-11T12:39:50.478Z,1.70
2022-12-11T12:42:42.857Z,1.70
2022-12-11T12:45:15.755Z,1.80
2022-12-11T12:47:50.333Z,1.90
2022-12-11T12:50:33.295Z,2.00
2022-12-11T12:53:00.795Z,2.10
2022-12-11T12:55:31.801Z,2.10
2022-12-11T12:58:02.443Z,2.20
2022-12-11T13:00:44.906Z,2.30
2022-12-11T13:03:20.870Z,2.40
2022-12-11T13:06:06.235Z,2.50
2022-12-11T13:08:48.336Z,2.50
2022-12-11T13:11:17.754Z,2.60
2022-12-11T13:13:54.951Z,2.60
2022-12-11T13:16:34.592Z,2.60
2022-12-11T13:19:01.583Z,2.50
2022-12-11T13:21:35.277Z,2.30
2022-12-11T13:24:22.028Z,2.30
2022-12-11T13:26:50.480Z,2.40
2022-12-11T13:29:35.324Z,2.40
2022-12-11T13:32:11.188Z,2.50
2022-12-11T13:34:41.023Z,2.50
2022-12-11T13:37:29.824Z,2.40
2022-12-11T13:39:57.624Z,2.40
2022-12-11T13:42:37.737Z,2.30
2022-12-11T13:45:05.587Z,2.10
2022-12-11T13:47:33.250Z,2.10
2022-12-11T13:50:37.071Z,2.20
2022-12-11T13:53:04.916Z,2.20
2022-12-11T13:55:34.507Z,2.20
2022-12-11T13:58:01.540Z,2.20
2022-12-11T14:00:32.797Z,2.20
2022-12-11T14:03:04.951Z,2.10
2022-12-11T14:05:32.071Z,2.20
2022-12-11T14:08:03.295Z,2.30
2022-12-11T14:10:32.494Z,2.40
2022-12-11T14:12:59.356Z,2.30
2022-12-11T14:15:28.212Z,2.30
2022-12-11T14:17:56.006Z,2.20
2022-12-11T14:20:25.273Z,2.20
2022-12-11T14:22:52.216Z,2.30
2022-12-11T14:25:21.810Z,2.20
2022-12-11T14:27:50.223Z,2.10
2022-12-11T14:30:26.338Z,2.00
2022-12-11T14:33:00.071Z,2.00
2022-12-11T14:35:38.638Z,1.80
2022-12-11T14:38:27.677Z,1.80
2022-12-11T14:40:59.958Z,1.70
2022-12-11T14:43:37.382Z,1.90
2022-12-11T14:46:11.477Z,1.80
2022-12-11T14:48:46.139Z,1.80
2022-12-11T14:51:17.482Z,1.80
2022-12-11T14:53:48.760Z,1.80
2022-12-11T14:56:19.877Z,1.60
2022-12-11T14:59:28.310Z,1.50
2022-12-11T15:02:17.751Z,1.50
2022-12-11T15:04:45.553Z,1.50
2022-12-11T15:07:22.205Z,1.40
2022-12-11T15:09:51.471Z,1.40
2022-12-11T15:12:19.863Z,1.50
2022-12-11T15:15:03.672Z,1.20
2022-12-11T15:17:30.972Z,1.20
2022-12-11T15:20:09.233Z,1.30
2022-12-11T15:22:36.998Z,1.20
2022-12-11T15:25:04.317Z,1.20
2022-12-11T15:27:35.614Z,1.10
2022-12-11T15:30:26.395Z,1.20
2022-12-11T15:33:11.843Z,1.20
2022-12-11T15:35:40.179Z,1.60
2022-12-11T15:38:26.409Z,1.30
2022-12-11T15:40:53.265Z,1.40
2022-12-11T15:43:20.156Z,1.50
2022-12-11T15:45:47.108Z,1.40
2022-12-11T15:48:14.005Z,1.40
2022-12-11T15:50:41.430Z,1.40
2022-12-11T15:53:09.704Z,1.30
2022-12-11T15:55:38.466Z,1.70
2022-12-11T15:58:09.397Z,1.60
2022-12-11T16:00:36.217Z,1.80
2022-12-11T16:03:03.205Z,2.30
2022-12-11T16:05:30.185Z,1.90
2022-12-11T16:07:59.933Z,2.10
2022-12-11T16:10:27.193Z,2.20
2022-12-11T16:12:59.307Z,2.60
2022-12-11T16:15:27.172Z,2.50
2022-12-11T16:18:12.030Z,2.50
2022-12-11T16:20:41.109Z,2.50
2022-12-11T16:23:09.151Z,2.60
2022-12-11T16:25:41.712Z,2.70
2022-12-11T16:28:10.740Z,2.80
2022-12-11T16:30:37.951Z,2.80
2022-12-11T16:33:11.998Z,3.10
2022-12-11T16:35:40.256Z,3.00
2022-12-11T16:38:07.897Z,2.90
2022-12-11T16:40:34.793Z,2.90
2022-12-11T16:43:03.252Z,2.70
2022-12-11T16:45:33.143Z,2.60
2022-12-11T16:48:04.067Z,2.60
2022-12-11T16:50:32.215Z,2.50
2022-12-11T16:52:59.154Z,2.40
2022-12-11T16:55:26.177Z,2.70
2022-12-11T16:57:53.080Z,2.40
2022-12-11T17:00:20.558Z,2.50
2022-12-11T17:02:48.189Z,2.10
2022-12-11T17:05:15.515Z,2.30
2022-12-11T17:07:42.504Z,3.10
2022-12-11T17:10:09.535Z,2.40
2022-12-11T17:12:36.423Z,2.50
2022-12-11T17:15:03.790Z,2.60
2022-12-11T17:17:30.966Z,2.70
2022-12-11T17:19:57.816Z,2.80
2022-12-11T17:22:25.225Z,2.90
2022-12-11T17:24:52.102Z,2.60
2022-12-11T17:27:19.005Z,2.50
2022-12-11T17:29:47.365Z,2.50
2022-12-11T17:32:14.370Z,2.60
2022-12-11T17:34:41.414Z,2.50
2022-12-11T17:37:08.408Z,2.40
2022-12-11T17:39:35.478Z,2.70
2022-12-11T17:42:02.337Z,2.40
2022-12-11T17:44:31.140Z,2.50
2022-12-11T17:46:59.085Z,2.50
2022-12-11T17:49:26.334Z,3.30
2022-12-11T17:51:55.354Z,2.40
2022-12-11T17:54:24.220Z,2.30
2022-12-11T17:56:51.511Z,2.30
2022-12-11T17:59:18.395Z,2.50
2022-12-11T18:01:45.331Z,2.30
2022-12-11T18:04:12.567Z,2.40
2022-12-11T18:06:39.752Z,2.40
2022-12-11T18:09:06.757Z,2.60
2022-12-11T18:11:33.957Z,2.20
2022-12-11T18:14:00.878Z,2.20
2022-12-11T18:16:31.699Z,2.10
2022-12-11T18:18:59.101Z,2.10
2022-12-11T18:21:29.407Z,2.50
2022-12-11T18:23:56.957Z,1.90
2022-12-11T18:26:24.069Z,1.90
2022-12-11T18:28:51.686Z,1.80
2022-12-11T18:31:20.112Z,1.80
2022-12-11T18:33:47.255Z,2.00
2022-12-11T18:36:15.877Z,2.00
2022-12-11T18:38:43.429Z,2.10
2022-12-11T18:41:13.231Z,2.20
2022-12-11T18:43:40.538Z,2.20
2022-12-11T18:46:14.182Z,2.30
2022-12-11T18:48:42.554Z,2.40
2022-12-11T18:51:12.733Z,2.40
2022-12-11T18:53:40.406Z,2.40
2022-12-11T18:56:10.168Z,2.30
2022-12-11T18:58:37.233Z,2.30
2022-12-11T19:01:14.028Z,2.30
2022-12-11T19:03:41.269Z,2.30
2022-12-11T19:06:10.175Z,2.20
2022-12-11T19:08:37.121Z,2.10
2022-12-11T19:11:04.344Z,2.10
2022-12-11T19:13:31.487Z,2.20
2022-12-11T19:15:58.496Z,2.20
2022-12-11T19:18:26.750Z,2.20
2022-12-11T19:21:03.295Z,2.20
2022-12-11T19:23:35.162Z,2.50
2022-12-11T19:26:02.394Z,2.20
2022-12-11T19:28:29.310Z,2.20
2022-12-11T19:30:56.472Z,2.20
2022-12-11T19:33:23.293Z,2.30
2022-12-11T19:35:50.096Z,2.30
2022-12-11T19:38:16.977Z,2.40
2022-12-11T19:40:44.778Z,2.30
2022-12-11T19:43:11.668Z,1.90
2022-12-11T19:45:39.033Z,1.90
2022-12-11T19:48:06.258Z,1.90
2022-12-11T19:50:36.327Z,1.90
2022-12-11T19:53:04.344Z,2.00
2022-12-11T19:55:31.209Z,2.10
2022-12-11T19:57:58.590Z,2.10
2022-12-11T20:00:25.460Z,2.20
2022-12-11T20:02:53.424Z,2.00
2022-12-11T20:05:20.346Z,1.90
2022-12-11T20:07:47.250Z,1.70
2022-12-11T20:10:14.105Z,1.70
2022-12-11T20:12:41.099Z,1.50
2022-12-11T20:15:08.468Z,1.40
2022-12-11T20:17:37.118Z,1.40
2022-12-11T20:20:04.256Z,1.30
2022-12-11T20:22:31.114Z,1.10
2022-12-11T20:24:57.993Z,1.10
2022-12-11T20:27:26.143Z,1.00
2022-12-11T20:29:52.964Z,0.90
2022-12-11T20:32:19.865Z,1.20
2022-12-11T20:34:46.724Z,0.90
2022-12-11T20:37:13.672Z,1.10
2022-12-11T20:39:40.640Z,1.30
2022-12-11T20:42:09.794Z,1.30
2022-12-11T20:44:36.740Z,1.10
2022-12-11T20:47:03.768Z,1.10
2022-12-11T20:49:30.608Z,1.10
2022-12-11T20:51:57.482Z,1.40
2022-12-11T20:54:24.399Z,1.00
2022-12-11T20:56:51.708Z,1.00
2022-12-11T20:59:19.047Z,1.10
2022-12-11T21:01:46.004Z,1.10
2022-12-11T21:04:12.973Z,1.20
2022-12-11T21:06:40.649Z,1.10
2022-12-11T21:09:19.876Z,1.10
2022-12-11T21:11:47.023Z,1.30
2022-12-11T21:14:14.768Z,1.50
2022-12-11T21:16:42.279Z,2.10
2022-12-11T21:19:16.498Z,1.80
2022-12-11T21:21:45.382Z,1.90
2022-12-11T21:24:19.400Z,2.00
2022-12-11T21:26:46.572Z,1.80
2022-12-11T21:29:16.209Z,1.60
2022-12-11T21:31:43.198Z,1.90
2022-12-11T21:34:10.787Z,1.30
2022-12-11T21:36:37.580Z,1.10
2022-12-11T21:39:04.966Z,1.10
2022-12-11T21:41:31.904Z,1.10
2022-12-11T21:46:45.966Z,0.90
2022-12-11T21:49:12.962Z,0.90
2022-12-11T21:51:46.799Z,0.70
2022-12-11T21:54:16.662Z,0.60
2022-12-11T21:56:44.078Z,0.50
2022-12-11T21:59:10.889Z,0.60
2022-12-11T22:01:42.033Z,0.70
2022-12-11T22:04:10.293Z,0.80
2022-12-11T22:06:37.257Z,0.90
2022-12-11T22:09:05.205Z,0.90
2022-12-11T22:11:34.169Z,1.00
2022-12-11T22:14:01.466Z,1.20
2022-12-11T22:16:28.561Z,1.50
2022-12-11T22:18:55.411Z,1.70
2022-12-11T22:21:22.315Z,1.80
2022-12-11T22:23:49.399Z,1.80
2022-12-11T22:26:19.152Z,1.90
2022-12-11T22:28:46.198Z,1.80
2022-12-11T22:31:14.583Z,1.70
2022-12-11T22:33:41.660Z,1.70
2022-12-11T22:36:10.058Z,1.50
2022-12-11T22:38:37.413Z,1.50
2022-12-11T22:41:13.517Z,1.30
2022-12-11T22:43:43.167Z,1.10
2022-12-11T22:46:15.454Z,0.80
2022-12-11T22:48:42.351Z,0.60
2022-12-11T22:51:09.432Z,0.50
2022-12-11T22:53:36.331Z,0.30
2022-12-11T22:56:07.947Z,0.20
2022-12-11T22:58:35.517Z,0.10
2022-12-11T23:01:03.221Z,0.00
2022-12-11T23:03:30.109Z,0.00
2022-12-11T23:06:00.747Z,0.00
2022-12-11T23:08:30.358Z,0.10
2022-12-11T23:10:57.286Z,0.00
2022-12-11T23:13:24.144Z,0.10
2022-12-11T23:15:51.000Z,0.10
2022-12-11T23:18:17.922Z,0.20
2022-12-11T23:20:44.720Z,0.20
2022-12-11T23:23:11.531Z,0.40
2022-12-11T23:25:38.461Z,0.70
2022-12-11T23:28:05.387Z,1.00
2022-12-11T23:30:32.257Z,1.20
2022-12-11T23:32:59.054Z,1.40
2022-12-11T23:35:25.995Z,1.50
2022-12-11T23:37:52.841Z,1.50
2022-12-11T23:40:19.786Z,1.60
2022-12-11T23:42:46.612Z,1.70
2022-12-11T23:45:13.782Z,1.90
2022-12-11T23:47:40.698Z,2.00
2022-12-11T23:50:07.891Z,2.10
2022-12-11T23:52:34.673Z,2.00
2022-12-11T23:55:01.784Z,2.40
2022-12-11T23:57:28.597Z,2.10
2022-12-11T23:59:55.422Z,2.50
